Silver Ray — D5DR6 — position and weather

sailwx.info

Track history (hours):
 
Tides and Currents Weather Stations Pressure Air Temp Water Temp Dewpoint Dewpoint Depression Visibility Wind Speed Wind Dir Waves Ship Positions

Silver Ray

Last reported at 2017-Sep-20 21:06 UTC. Time now 2017-Oct-20 16:22 UTC.
Position N 31°23' E 032°20'.
Warning: this ship's position is 29 days out of date.

Length 142 m; draft 10 m.

Type: Ship. MMSI: 636015953.

Date/timePositionNaut miles runAvg speedWind from/ knotsBaromVisibWave heightAir tempDewpointWater temp
2017-Sep-20 21:06N 31°23' E 032°20'50111.9
2017-Sep-19 03:07N 33°50' E 022°52'4414.0
2017-Sep-19 00:00N 34°01' E 022°01'1314.1
2017-Sep-18 23:03N 34°05' E 021°45'114.1
2017-Sep-18 23:00N 34°05' E 021°45'5113.9
2017-Sep-18 19:21N 34°18' E 020°45'513.5
2017-Sep-18 19:00N 34°20' E 020°40'813.6
2017-Sep-18 18:25N 34°22' E 020°31'613.5
2017-Sep-18 18:00N 34°23' E 020°24'713.5
2017-Sep-18 17:30N 34°25' E 020°16'713.6
2017-Sep-18 17:00N 34°27' E 020°08'4614.0
2017-Sep-18 13:43N 34°39' E 019°15'814.2
2017-Sep-18 13:09N 34°41' E 019°05'614.0
2017-Sep-18 12:43N 34°42' E 018°58'613.8
2017-Sep-18 12:17N 34°44' E 018°51'413.9
2017-Sep-18 12:00N 34°45' E 018°46'713.7
2017-Sep-18 11:29N 34°47' E 018°38'713.5
2017-Sep-18 11:00N 34°49' E 018°30'713.4
2017-Sep-18 10:29N 34°50' E 018°22'813.2
2017-Sep-18 09:55N 34°52' E 018°13'613.2
2017-Sep-18 09:29N 34°54' E 018°07'713.3
2017-Sep-18 09:00N 34°56' E 017°59'1513.2
2017-Sep-18 07:50N 34°60' E 017°41'613.4
2017-Sep-18 07:25N 35°01' E 017°34'613.4
2017-Sep-18 07:00N 35°02' E 017°28'913.6
2017-Sep-18 06:21N 35°05' E 017°17'513.7
2017-Sep-18 06:00N 35°06' E 017°12'713.6
2017-Sep-18 05:30N 35°08' E 017°04'713.6
2017-Sep-18 05:00N 35°10' E 016°56'713.6
2017-Sep-18 04:30N 35°12' E 016°48'713.5
2017-Sep-18 04:00N 35°13' E 016°40'713.3
2017-Sep-18 03:30N 35°15' E 016°32'713.3
2017-Sep-18 03:00N 35°17' E 016°24'713.4
2017-Sep-18 02:30N 35°19' E 016°16'713.4
2017-Sep-18 02:00N 35°20' E 016°08'713.5
2017-Sep-18 01:30N 35°22' E 016°00'713.8
2017-Sep-18 01:00N 35°24' E 015°52'713.8
2017-Sep-18 00:29N 35°26' E 015°43'714.0
2017-Sep-18 00:00N 35°28' E 015°36'714.3
2017-Sep-17 23:30N 35°29' E 015°27'714.4
2017-Sep-17 23:00N 35°31' E 015°19'714.3
2017-Sep-17 22:30N 35°33' E 015°10'713.7
2017-Sep-17 22:00N 35°35' E 015°02'713.6
2017-Sep-17 21:30N 35°37' E 014°54'713.6
2017-Sep-17 21:00N 35°39' E 014°46'913.4
2017-Sep-17 20:19N 35°41' E 014°35'513.6
2017-Sep-17 19:57N 35°42' E 014°29'613.5
2017-Sep-17 19:30N 35°44' E 014°22'713.6
2017-Sep-17 19:00N 35°46' E 014°14'713.6
2017-Sep-17 18:30N 35°48' E 014°06'713.3
2017-Sep-17 18:00N 35°51' E 013°59'713.6
2017-Sep-17 17:30N 35°54' E 013°52'713.5
2017-Sep-17 16:58N 35°58' E 013°44'1013.6
2017-Sep-17 16:15N 36°04' E 013°34'413.6
2017-Sep-17 16:00N 36°06' E 013°31'713.5
2017-Sep-17 15:30N 36°10' E 013°24'  
2017-Sep-14 19:58N 35°59' W 005°17'715.8
2017-Sep-14 19:30N 35°58' W 005°25'9912.5
2017-Sep-14 11:33N 36°01' W 007°28'113.0
2017-Sep-14 11:30N 36°01' W 007°28'1913.0
2017-Sep-14 10:03N 36°07' W 007°51'312.9
2017-Sep-14 09:51N 36°07' W 007°54'413.2
2017-Sep-14 09:30N 36°09' W 007°59'1113.6
2017-Sep-14 08:43N 36°12' W 008°12'313.5
2017-Sep-14 08:29N 36°13' W 008°16'613.4
2017-Sep-14 08:00N 36°15' W 008°23'713.4
2017-Sep-14 07:30N 36°17' W 008°31'2013.7
2017-Sep-14 06:01N 36°23' W 008°55'013.8
2017-Sep-14 06:00N 36°23' W 008°55'1013.7
2017-Sep-14 05:15N 36°27' W 009°07'813.4
2017-Sep-14 04:38N 36°29' W 009°17'1913.1
2017-Sep-14 03:12N 36°42' W 009°34'413.8
2017-Sep-14 02:56N 36°45' W 009°37'613.5
2017-Sep-14 02:28N 36°51' W 009°39'1913.8
2017-Sep-14 01:07N 37°09' W 009°45'1013.9
2017-Sep-14 00:24N 37°19' W 009°47'814.1
2017-Sep-13 23:50N 37°27' W 009°50'2013.3
2017-Sep-13 22:22N 37°46' W 009°54'712.6
2017-Sep-13 21:49N 37°52' W 009°57'413.4
2017-Sep-13 21:30N 37°56' W 009°58'713.5
2017-Sep-13 21:01N 38°03' W 010°00'713.6
2017-Sep-13 20:31N 38°10' W 010°02'713.7
2017-Sep-13 20:00N 38°16' W 010°04'713.9
2017-Sep-13 19:30N 38°23' W 010°06'714.3
2017-Sep-13 19:00N 38°30' W 010°08'714.1
2017-Sep-13 18:30N 38°37' W 010°10'713.9
2017-Sep-13 18:01N 38°44' W 010°11'713.9
2017-Sep-13 17:30N 38°51' W 010°11'713.5
2017-Sep-13 17:00N 38°58' W 010°11'713.5
2017-Sep-13 16:30N 39°04' W 010°11'713.6
2017-Sep-13 16:00N 39°11' W 010°11'714.4
2017-Sep-13 15:30N 39°18' W 010°11'714.4
2017-Sep-13 15:00N 39°25' W 010°11'813.8
2017-Sep-13 14:25N 39°34' W 010°11'813.7
2017-Sep-13 13:49N 39°42' W 010°11'  
2017-Sep-11 01:40N 49°44' W 003°32'5 9.8
2017-Sep-11 01:12N 49°47' W 003°26'210.0
2017-Sep-11 01:00N 49°48' W 003°23'5 9.4
2017-Sep-11 00:30N 49°50' W 003°17'5 9.2
2017-Sep-11 00:00N 49°52' W 003°11'7 8.9
2017-Sep-10 23:12N 49°56' W 003°01'3 8.4
2017-Sep-10 22:50N 49°57' W 002°57'3 8.0
2017-Sep-10 22:26N 49°59' W 002°52'3 8.0
2017-Sep-10 22:01N 49°60' W 002°47'  
Track history (hours):
 
Tides and Currents Weather Stations Pressure Air Temp Water Temp Dewpoint Dewpoint Depression Visibility Wind Speed Wind Dir Waves Ship Positions

Silver Ray

Last reported at 2017-Sep-20 21:06 UTC. Time now 2017-Oct-20 16:22 UTC.
Position N 31°23' E 032°20'.
Warning: this ship's position is 29 days out of date.

Length 142 m; draft 10 m.

Type: Ship. MMSI: 636015953.

Date/timePositionNaut miles runAvg speedWind from/ knotsBaromVisibWave heightAir tempDewpointWater temp
2017-Sep-20 21:06N 31°23' E 032°20'50111.9
2017-Sep-19 03:07N 33°50' E 022°52'4414.0
2017-Sep-19 00:00N 34°01' E 022°01'1314.1
2017-Sep-18 23:03N 34°05' E 021°45'114.1
2017-Sep-18 23:00N 34°05' E 021°45'5113.9
2017-Sep-18 19:21N 34°18' E 020°45'513.5
2017-Sep-18 19:00N 34°20' E 020°40'813.6
2017-Sep-18 18:25N 34°22' E 020°31'613.5
2017-Sep-18 18:00N 34°23' E 020°24'713.5
2017-Sep-18 17:30N 34°25' E 020°16'713.6
2017-Sep-18 17:00N 34°27' E 020°08'4614.0
2017-Sep-18 13:43N 34°39' E 019°15'814.2
2017-Sep-18 13:09N 34°41' E 019°05'614.0
2017-Sep-18 12:43N 34°42' E 018°58'613.8
2017-Sep-18 12:17N 34°44' E 018°51'413.9
2017-Sep-18 12:00N 34°45' E 018°46'713.7
2017-Sep-18 11:29N 34°47' E 018°38'713.5
2017-Sep-18 11:00N 34°49' E 018°30'713.4
2017-Sep-18 10:29N 34°50' E 018°22'813.2
2017-Sep-18 09:55N 34°52' E 018°13'613.2
2017-Sep-18 09:29N 34°54' E 018°07'713.3
2017-Sep-18 09:00N 34°56' E 017°59'1513.2
2017-Sep-18 07:50N 34°60' E 017°41'613.4
2017-Sep-18 07:25N 35°01' E 017°34'613.4
2017-Sep-18 07:00N 35°02' E 017°28'913.6
2017-Sep-18 06:21N 35°05' E 017°17'513.7
2017-Sep-18 06:00N 35°06' E 017°12'713.6
2017-Sep-18 05:30N 35°08' E 017°04'713.6
2017-Sep-18 05:00N 35°10' E 016°56'713.6
2017-Sep-18 04:30N 35°12' E 016°48'713.5
2017-Sep-18 04:00N 35°13' E 016°40'713.3
2017-Sep-18 03:30N 35°15' E 016°32'713.3
2017-Sep-18 03:00N 35°17' E 016°24'713.4
2017-Sep-18 02:30N 35°19' E 016°16'713.4
2017-Sep-18 02:00N 35°20' E 016°08'713.5
2017-Sep-18 01:30N 35°22' E 016°00'713.8
2017-Sep-18 01:00N 35°24' E 015°52'713.8
2017-Sep-18 00:29N 35°26' E 015°43'714.0
2017-Sep-18 00:00N 35°28' E 015°36'714.3
2017-Sep-17 23:30N 35°29' E 015°27'714.4
2017-Sep-17 23:00N 35°31' E 015°19'714.3
2017-Sep-17 22:30N 35°33' E 015°10'713.7
2017-Sep-17 22:00N 35°35' E 015°02'713.6
2017-Sep-17 21:30N 35°37' E 014°54'713.6
2017-Sep-17 21:00N 35°39' E 014°46'913.4
2017-Sep-17 20:19N 35°41' E 014°35'513.6
2017-Sep-17 19:57N 35°42' E 014°29'613.5
2017-Sep-17 19:30N 35°44' E 014°22'713.6
2017-Sep-17 19:00N 35°46' E 014°14'713.6
2017-Sep-17 18:30N 35°48' E 014°06'713.3
2017-Sep-17 18:00N 35°51' E 013°59'713.6
2017-Sep-17 17:30N 35°54' E 013°52'713.5
2017-Sep-17 16:58N 35°58' E 013°44'1013.6
2017-Sep-17 16:15N 36°04' E 013°34'413.6
2017-Sep-17 16:00N 36°06' E 013°31'713.5
2017-Sep-17 15:30N 36°10' E 013°24'  
2017-Sep-14 19:58N 35°59' W 005°17'715.8
2017-Sep-14 19:30N 35°58' W 005°25'9912.5
2017-Sep-14 11:33N 36°01' W 007°28'113.0
2017-Sep-14 11:30N 36°01' W 007°28'1913.0
2017-Sep-14 10:03N 36°07' W 007°51'312.9
2017-Sep-14 09:51N 36°07' W 007°54'413.2
2017-Sep-14 09:30N 36°09' W 007°59'1113.6
2017-Sep-14 08:43N 36°12' W 008°12'313.5
2017-Sep-14 08:29N 36°13' W 008°16'613.4
2017-Sep-14 08:00N 36°15' W 008°23'713.4
2017-Sep-14 07:30N 36°17' W 008°31'2013.7
2017-Sep-14 06:01N 36°23' W 008°55'013.8
2017-Sep-14 06:00N 36°23' W 008°55'1013.7
2017-Sep-14 05:15N 36°27' W 009°07'813.4
2017-Sep-14 04:38N 36°29' W 009°17'1913.1
2017-Sep-14 03:12N 36°42' W 009°34'413.8
2017-Sep-14 02:56N 36°45' W 009°37'613.5
2017-Sep-14 02:28N 36°51' W 009°39'1913.8
2017-Sep-14 01:07N 37°09' W 009°45'1013.9
2017-Sep-14 00:24N 37°19' W 009°47'814.1
2017-Sep-13 23:50N 37°27' W 009°50'2013.3
2017-Sep-13 22:22N 37°46' W 009°54'712.6
2017-Sep-13 21:49N 37°52' W 009°57'413.4
2017-Sep-13 21:30N 37°56' W 009°58'713.5
2017-Sep-13 21:01N 38°03' W 010°00'713.6
2017-Sep-13 20:31N 38°10' W 010°02'713.7
2017-Sep-13 20:00N 38°16' W 010°04'713.9
2017-Sep-13 19:30N 38°23' W 010°06'714.3
2017-Sep-13 19:00N 38°30' W 010°08'714.1
2017-Sep-13 18:30N 38°37' W 010°10'713.9
2017-Sep-13 18:01N 38°44' W 010°11'713.9
2017-Sep-13 17:30N 38°51' W 010°11'713.5
2017-Sep-13 17:00N 38°58' W 010°11'713.5
2017-Sep-13 16:30N 39°04' W 010°11'713.6
2017-Sep-13 16:00N 39°11' W 010°11'714.4
2017-Sep-13 15:30N 39°18' W 010°11'714.4
2017-Sep-13 15:00N 39°25' W 010°11'813.8
2017-Sep-13 14:25N 39°34' W 010°11'813.7
2017-Sep-13 13:49N 39°42' W 010°11'  
2017-Sep-11 01:40N 49°44' W 003°32'5 9.8
2017-Sep-11 01:12N 49°47' W 003°26'210.0
2017-Sep-11 01:00N 49°48' W 003°23'5 9.4
2017-Sep-11 00:30N 49°50' W 003°17'5 9.2
2017-Sep-11 00:00N 49°52' W 003°11'7 8.9
2017-Sep-10 23:12N 49°56' W 003°01'3 8.4
2017-Sep-10 22:50N 49°57' W 002°57'3 8.0
2017-Sep-10 22:26N 49°59' W 002°52'3 8.0
2017-Sep-10 22:01N 49°60' W 002°47'  

Dump ship's entire track history